sensor_id;sensor_type;location;lat;lon;timestamp;P1;durP1;ratioP1;P2;durP2;ratioP2
69523;SDS011;56723;42.694;23.286;2023-02-12T00:01:18;17.60;;;9.20;;
69523;SDS011;56723;42.694;23.286;2023-02-12T00:03:46;14.60;;;9.33;;
69523;SDS011;56723;42.694;23.286;2023-02-12T00:06:13;19.93;;;10.07;;
69523;SDS011;56723;42.694;23.286;2023-02-12T00:08:41;16.07;;;8.63;;
69523;SDS011;56723;42.694;23.286;2023-02-12T00:11:09;15.63;;;9.43;;
69523;SDS011;56723;42.694;23.286;2023-02-12T00:13:38;17.03;;;9.33;;
69523;SDS011;56723;42.694;23.286;2023-02-12T00:16:06;18.03;;;9.77;;
69523;SDS011;56723;42.694;23.286;2023-02-12T00:21:02;18.53;;;9.20;;
69523;SDS011;56723;42.694;23.286;2023-02-12T00:23:29;15.60;;;8.87;;
69523;SDS011;56723;42.694;23.286;2023-02-12T00:25:57;15.70;;;9.07;;
69523;SDS011;56723;42.694;23.286;2023-02-12T00:28:24;18.57;;;10.00;;
69523;SDS011;56723;42.694;23.286;2023-02-12T00:30:53;16.15;;;9.88;;
69523;SDS011;56723;42.694;23.286;2023-02-12T00:33:20;15.53;;;9.57;;
69523;SDS011;56723;42.694;23.286;2023-02-12T00:35:54;16.87;;;9.17;;
69523;SDS011;56723;42.694;23.286;2023-02-12T00:38:22;16.50;;;8.90;;
69523;SDS011;56723;42.694;23.286;2023-02-12T00:40:49;21.00;;;10.17;;
69523;SDS011;56723;42.694;23.286;2023-02-12T00:43:16;15.50;;;8.47;;
69523;SDS011;56723;42.694;23.286;2023-02-12T00:45:43;14.10;;;8.63;;
69523;SDS011;56723;42.694;23.286;2023-02-12T00:48:11;15.20;;;9.23;;
69523;SDS011;56723;42.694;23.286;2023-02-12T00:50:40;15.00;;;9.32;;
69523;SDS011;56723;42.694;23.286;2023-02-12T00:53:07;18.70;;;8.87;;
69523;SDS011;56723;42.694;23.286;2023-02-12T00:55:34;16.90;;;10.23;;
69523;SDS011;56723;42.694;23.286;2023-02-12T00:58:01;15.13;;;9.23;;
69523;SDS011;56723;42.694;23.286;2023-02-12T01:00:28;15.97;;;9.20;;
69523;SDS011;56723;42.694;23.286;2023-02-12T01:02:55;16.03;;;9.37;;
69523;SDS011;56723;42.694;23.286;2023-02-12T01:05:23;19.40;;;9.23;;
69523;SDS011;56723;42.694;23.286;2023-02-12T01:07:51;18.47;;;9.63;;
69523;SDS011;56723;42.694;23.286;2023-02-12T01:10:19;16.07;;;9.17;;
69523;SDS011;56723;42.694;23.286;2023-02-12T01:12:46;16.47;;;9.23;;
69523;SDS011;56723;42.694;23.286;2023-02-12T01:15:14;16.53;;;9.13;;
69523;SDS011;56723;42.694;23.286;2023-02-12T01:17:42;15.97;;;9.93;;
69523;SDS011;56723;42.694;23.286;2023-02-12T01:20:10;17.23;;;9.40;;
69523;SDS011;56723;42.694;23.286;2023-02-12T01:22:39;16.17;;;9.53;;
69523;SDS011;56723;42.694;23.286;2023-02-12T01:25:06;14.50;;;9.27;;
69523;SDS011;56723;42.694;23.286;2023-02-12T01:27:34;14.70;;;8.60;;
69523;SDS011;56723;42.694;23.286;2023-02-12T01:30:01;13.40;;;8.47;;
69523;SDS011;56723;42.694;23.286;2023-02-12T01:32:29;14.93;;;8.20;;
69523;SDS011;56723;42.694;23.286;2023-02-12T01:34:56;14.90;;;8.90;;
69523;SDS011;56723;42.694;23.286;2023-02-12T01:37:23;18.77;;;8.93;;
69523;SDS011;56723;42.694;23.286;2023-02-12T01:39:51;16.93;;;9.63;;
69523;SDS011;56723;42.694;23.286;2023-02-12T01:42:18;17.17;;;9.20;;
69523;SDS011;56723;42.694;23.286;2023-02-12T01:45:17;15.07;;;9.13;;
69523;SDS011;56723;42.694;23.286;2023-02-12T01:47:41;14.83;;;9.20;;
69523;SDS011;56723;42.694;23.286;2023-02-12T01:50:10;17.17;;;8.70;;
69523;SDS011;56723;42.694;23.286;2023-02-12T01:52:42;18.13;;;10.43;;
69523;SDS011;56723;42.694;23.286;2023-02-12T01:55:11;20.20;;;10.43;;
69523;SDS011;56723;42.694;23.286;2023-02-12T01:57:41;19.33;;;10.43;;
69523;SDS011;56723;42.694;23.286;2023-02-12T02:00:13;17.60;;;10.17;;
69523;SDS011;56723;42.694;23.286;2023-02-12T02:02:46;15.40;;;9.47;;
69523;SDS011;56723;42.694;23.286;2023-02-12T02:05:19;16.90;;;10.03;;
69523;SDS011;56723;42.694;23.286;2023-02-12T02:07:54;18.27;;;9.07;;
69523;SDS011;56723;42.694;23.286;2023-02-12T02:10:21;15.33;;;9.77;;
69523;SDS011;56723;42.694;23.286;2023-02-12T03:26:45;22.43;;;13.03;;
69523;SDS011;56723;42.694;23.286;2023-02-12T03:29:16;22.27;;;12.53;;
69523;SDS011;56723;42.694;23.286;2023-02-12T03:32:04;20.67;;;12.57;;
69523;SDS011;56723;42.694;23.286;2023-02-12T03:34:47;21.17;;;14.30;;
69523;SDS011;56723;42.694;23.286;2023-02-12T03:37:23;22.33;;;13.93;;
69523;SDS011;56723;42.694;23.286;2023-02-12T03:39:56;21.77;;;12.50;;
69523;SDS011;56723;42.694;23.286;2023-02-12T03:45:21;24.07;;;13.77;;
69523;SDS011;56723;42.694;23.286;2023-02-12T07:11:52;28.13;;;16.37;;
69523;SDS011;56723;42.694;23.286;2023-02-12T07:14:19;32.47;;;17.47;;
69523;SDS011;56723;42.694;23.286;2023-02-12T07:16:46;33.20;;;19.13;;
69523;SDS011;56723;42.694;23.286;2023-02-12T07:19:13;32.27;;;19.07;;
69523;SDS011;56723;42.694;23.286;2023-02-12T07:21:42;31.90;;;19.00;;
69523;SDS011;56723;42.694;23.286;2023-02-12T07:24:10;34.77;;;19.90;;
69523;SDS011;56723;42.694;23.286;2023-02-12T07:26:37;38.13;;;21.87;;
69523;SDS011;56723;42.694;23.286;2023-02-12T07:29:05;30.07;;;16.93;;
69523;SDS011;56723;42.694;23.286;2023-02-12T07:31:33;25.20;;;16.10;;
69523;SDS011;56723;42.694;23.286;2023-02-12T08:46:26;34.90;;;20.73;;
69523;SDS011;56723;42.694;23.286;2023-02-12T08:48:59;32.30;;;20.53;;
69523;SDS011;56723;42.694;23.286;2023-02-12T08:51:29;34.00;;;20.10;;
69523;SDS011;56723;42.694;23.286;2023-02-12T08:54:03;39.83;;;22.27;;
69523;SDS011;56723;42.694;23.286;2023-02-12T08:56:33;29.03;;;19.20;;
69523;SDS011;56723;42.694;23.286;2023-02-12T08:59:01;35.67;;;20.93;;
69523;SDS011;56723;42.694;23.286;2023-02-12T09:01:31;32.83;;;20.52;;
69523;SDS011;56723;42.694;23.286;2023-02-12T09:03:59;38.17;;;21.88;;
69523;SDS011;56723;42.694;23.286;2023-02-12T09:06:27;37.57;;;22.23;;
69523;SDS011;56723;42.694;23.286;2023-02-12T09:08:54;34.03;;;20.93;;
69523;SDS011;56723;42.694;23.286;2023-02-12T09:11:22;35.73;;;21.57;;
69523;SDS011;56723;42.694;23.286;2023-02-12T09:13:57;34.40;;;21.77;;
69523;SDS011;56723;42.694;23.286;2023-02-12T09:16:26;34.67;;;22.55;;
69523;SDS011;56723;42.694;23.286;2023-02-12T09:18:54;34.87;;;22.37;;
69523;SDS011;56723;42.694;23.286;2023-02-12T09:21:21;39.67;;;24.47;;
69523;SDS011;56723;42.694;23.286;2023-02-12T09:23:49;35.63;;;22.87;;
69523;SDS011;56723;42.694;23.286;2023-02-12T09:26:18;35.60;;;21.50;;
69523;SDS011;56723;42.694;23.286;2023-02-12T09:28:47;36.57;;;22.90;;
69523;SDS011;56723;42.694;23.286;2023-02-12T09:31:16;38.07;;;21.57;;
69523;SDS011;56723;42.694;23.286;2023-02-12T09:33:46;36.43;;;23.60;;
69523;SDS011;56723;42.694;23.286;2023-02-12T09:36:20;38.37;;;23.00;;
69523;SDS011;56723;42.694;23.286;2023-02-12T09:38:47;34.00;;;21.87;;
69523;SDS011;56723;42.694;23.286;2023-02-12T09:46:39;41.23;;;26.53;;
69523;SDS011;56723;42.694;23.286;2023-02-12T09:52:21;33.37;;;20.93;;
69523;SDS011;56723;42.694;23.286;2023-02-12T09:54:53;40.83;;;24.57;;
69523;SDS011;56723;42.694;23.286;2023-02-12T10:22:33;41.00;;;24.73;;
69523;SDS011;56723;42.694;23.286;2023-02-12T10:28:06;70.90;;;33.83;;
69523;SDS011;56723;42.694;23.286;2023-02-12T10:30:44;70.70;;;33.20;;
69523;SDS011;56723;42.694;23.286;2023-02-12T10:33:44;45.43;;;25.80;;
69523;SDS011;56723;42.694;23.286;2023-02-12T10:36:28;41.77;;;25.40;;
69523;SDS011;56723;42.694;23.286;2023-02-12T10:39:12;38.17;;;23.40;;
69523;SDS011;56723;42.694;23.286;2023-02-12T10:42:00;80.10;;;38.17;;
69523;SDS011;56723;42.694;23.286;2023-02-12T10:44:33;39.63;;;24.90;;
69523;SDS011;56723;42.694;23.286;2023-02-12T10:47:00;154.83;;;68.27;;
69523;SDS011;56723;42.694;23.286;2023-02-12T10:49:27;137.50;;;72.27;;
69523;SDS011;56723;42.694;23.286;2023-02-12T10:55:00;62.70;;;36.97;;
69523;SDS011;56723;42.694;23.286;2023-02-12T10:57:28;55.17;;;34.13;;
69523;SDS011;56723;42.694;23.286;2023-02-12T11:00:12;33.57;;;22.50;;
69523;SDS011;56723;42.694;23.286;2023-02-12T11:03:01;41.57;;;23.80;;
69523;SDS011;56723;42.694;23.286;2023-02-12T11:05:30;42.97;;;26.47;;
69523;SDS011;56723;42.694;23.286;2023-02-12T11:08:01;39.23;;;22.93;;
69523;SDS011;56723;42.694;23.286;2023-02-12T11:10:37;46.88;;;25.92;;
69523;SDS011;56723;42.694;23.286;2023-02-12T11:13:23;36.47;;;23.97;;
69523;SDS011;56723;42.694;23.286;2023-02-12T11:15:52;38.10;;;24.40;;
69523;SDS011;56723;42.694;23.286;2023-02-12T11:18:21;163.17;;;69.70;;
69523;SDS011;56723;42.694;23.286;2023-02-12T11:23:35;46.60;;;27.57;;
69523;SDS011;56723;42.694;23.286;2023-02-12T11:26:05;44.00;;;24.70;;
69523;SDS011;56723;42.694;23.286;2023-02-12T11:28:59;40.53;;;24.67;;
69523;SDS011;56723;42.694;23.286;2023-02-12T11:31:27;44.30;;;25.87;;
69523;SDS011;56723;42.694;23.286;2023-02-12T11:36:45;38.77;;;24.20;;
69523;SDS011;56723;42.694;23.286;2023-02-12T11:39:28;38.13;;;23.93;;
69523;SDS011;56723;42.694;23.286;2023-02-12T11:41:57;37.10;;;22.60;;
69523;SDS011;56723;42.694;23.286;2023-02-12T11:44:31;32.40;;;21.83;;
69523;SDS011;56723;42.694;23.286;2023-02-12T11:47:02;34.80;;;21.93;;
69523;SDS011;56723;42.694;23.286;2023-02-12T11:49:39;38.37;;;23.33;;
69523;SDS011;56723;42.694;23.286;2023-02-12T11:52:20;31.87;;;21.50;;
69523;SDS011;56723;42.694;23.286;2023-02-12T11:54:50;36.13;;;23.00;;
69523;SDS011;56723;42.694;23.286;2023-02-12T12:00:10;31.80;;;20.67;;
69523;SDS011;56723;42.694;23.286;2023-02-12T12:02:57;31.43;;;21.13;;
69523;SDS011;56723;42.694;23.286;2023-02-12T12:05:43;38.60;;;25.17;;
69523;SDS011;56723;42.694;23.286;2023-02-12T12:08:24;39.77;;;24.80;;
69523;SDS011;56723;42.694;23.286;2023-02-12T12:10:59;45.43;;;26.60;;
69523;SDS011;56723;42.694;23.286;2023-02-12T12:13:37;45.77;;;30.23;;
69523;SDS011;56723;42.694;23.286;2023-02-12T12:16:18;35.40;;;23.70;;
69523;SDS011;56723;42.694;23.286;2023-02-12T12:19:22;35.07;;;21.57;;
69523;SDS011;56723;42.694;23.286;2023-02-12T12:24:56;126.33;;;69.47;;
69523;SDS011;56723;42.694;23.286;2023-02-12T12:39:02;34.70;;;23.90;;
69523;SDS011;56723;42.694;23.286;2023-02-12T12:44:44;40.37;;;25.40;;
69523;SDS011;56723;42.694;23.286;2023-02-12T12:47:28;33.03;;;22.17;;
69523;SDS011;56723;42.694;23.286;2023-02-12T12:55:53;34.60;;;23.23;;
69523;SDS011;56723;42.694;23.286;2023-02-12T13:07:01;40.67;;;26.07;;
69523;SDS011;56723;42.694;23.286;2023-02-12T13:14:54;43.95;;;26.48;;
69523;SDS011;56723;42.694;23.286;2023-02-12T13:17:37;40.17;;;26.47;;
69523;SDS011;56723;42.694;23.286;2023-02-12T13:29:16;47.40;;;29.03;;
69523;SDS011;56723;42.694;23.286;2023-02-12T13:31:53;40.00;;;26.17;;
69523;SDS011;56723;42.694;23.286;2023-02-12T13:34:23;40.03;;;24.63;;
69523;SDS011;56723;42.694;23.286;2023-02-12T13:36:54;39.60;;;26.00;;
69523;SDS011;56723;42.694;23.286;2023-02-12T13:42:02;37.37;;;24.10;;
69523;SDS011;56723;42.694;23.286;2023-02-12T13:45:06;45.60;;;28.10;;
69523;SDS011;56723;42.694;23.286;2023-02-12T13:50:33;42.43;;;27.77;;
69523;SDS011;56723;42.694;23.286;2023-02-12T13:58:57;40.97;;;26.37;;
69523;SDS011;56723;42.694;23.286;2023-02-12T14:01:44;54.63;;;32.15;;
69523;SDS011;56723;42.694;23.286;2023-02-12T14:06:50;51.97;;;31.23;;
69523;SDS011;56723;42.694;23.286;2023-02-12T14:09:21;55.17;;;34.10;;
69523;SDS011;56723;42.694;23.286;2023-02-12T14:12:03;51.80;;;31.97;;
69523;SDS011;56723;42.694;23.286;2023-02-12T14:14:34;45.83;;;27.80;;
69523;SDS011;56723;42.694;23.286;2023-02-12T14:24:59;49.07;;;30.13;;
69523;SDS011;56723;42.694;23.286;2023-02-12T14:30:20;46.63;;;29.50;;
69523;SDS011;56723;42.694;23.286;2023-02-12T14:32:56;42.47;;;27.03;;
69523;SDS011;56723;42.694;23.286;2023-02-12T14:35:34;44.47;;;29.60;;
69523;SDS011;56723;42.694;23.286;2023-02-12T14:40:44;49.13;;;29.87;;
69523;SDS011;56723;42.694;23.286;2023-02-12T14:48:54;46.13;;;26.53;;
69523;SDS011;56723;42.694;23.286;2023-02-12T14:53:54;46.13;;;28.50;;
69523;SDS011;56723;42.694;23.286;2023-02-12T14:56:22;42.43;;;26.43;;
69523;SDS011;56723;42.694;23.286;2023-02-12T14:58:52;48.90;;;30.27;;
69523;SDS011;56723;42.694;23.286;2023-02-12T15:01:26;48.03;;;29.90;;
69523;SDS011;56723;42.694;23.286;2023-02-12T15:04:09;48.13;;;30.47;;
69523;SDS011;56723;42.694;23.286;2023-02-12T15:06:47;50.23;;;30.70;;
69523;SDS011;56723;42.694;23.286;2023-02-12T15:09:24;55.70;;;32.13;;
69523;SDS011;56723;42.694;23.286;2023-02-12T15:12:02;87.23;;;44.57;;
69523;SDS011;56723;42.694;23.286;2023-02-12T15:14:38;54.10;;;32.07;;
69523;SDS011;56723;42.694;23.286;2023-02-12T15:17:10;68.63;;;39.73;;
69523;SDS011;56723;42.694;23.286;2023-02-12T15:22:33;72.63;;;39.30;;
69523;SDS011;56723;42.694;23.286;2023-02-12T15:27:55;55.05;;;33.53;;
69523;SDS011;56723;42.694;23.286;2023-02-12T15:30:27;111.10;;;56.37;;
69523;SDS011;56723;42.694;23.286;2023-02-12T15:32:56;68.47;;;39.70;;
69523;SDS011;56723;42.694;23.286;2023-02-12T15:37:55;57.72;;;34.45;;
69523;SDS011;56723;42.694;23.286;2023-02-12T15:40:26;58.57;;;35.47;;
69523;SDS011;56723;42.694;23.286;2023-02-12T15:42:55;84.23;;;47.57;;
69523;SDS011;56723;42.694;23.286;2023-02-12T15:47:58;79.30;;;44.93;;
69523;SDS011;56723;42.694;23.286;2023-02-12T15:50:28;70.97;;;42.03;;
69523;SDS011;56723;42.694;23.286;2023-02-12T15:52:58;143.70;;;77.40;;
69523;SDS011;56723;42.694;23.286;2023-02-12T15:55:26;68.87;;;41.73;;
69523;SDS011;56723;42.694;23.286;2023-02-12T15:57:57;69.77;;;41.40;;
69523;SDS011;56723;42.694;23.286;2023-02-12T16:00:36;71.00;;;44.05;;
69523;SDS011;56723;42.694;23.286;2023-02-12T16:03:41;66.03;;;40.83;;
69523;SDS011;56723;42.694;23.286;2023-02-12T16:06:03;77.70;;;48.60;;
69523;SDS011;56723;42.694;23.286;2023-02-12T16:08:39;70.27;;;40.97;;
69523;SDS011;56723;42.694;23.286;2023-02-12T16:11:13;81.13;;;48.50;;
69523;SDS011;56723;42.694;23.286;2023-02-12T16:13:49;81.17;;;46.67;;
69523;SDS011;56723;42.694;23.286;2023-02-12T16:21:53;81.63;;;47.87;;
69523;SDS011;56723;42.694;23.286;2023-02-12T16:24:26;88.97;;;50.57;;
69523;SDS011;56723;42.694;23.286;2023-02-12T16:29:44;76.50;;;42.17;;
69523;SDS011;56723;42.694;23.286;2023-02-12T16:32:34;73.47;;;43.73;;
69523;SDS011;56723;42.694;23.286;2023-02-12T16:35:18;79.97;;;46.17;;
69523;SDS011;56723;42.694;23.286;2023-02-12T16:40:30;66.53;;;39.90;;
69523;SDS011;56723;42.694;23.286;2023-02-12T16:43:00;77.47;;;42.30;;
69523;SDS011;56723;42.694;23.286;2023-02-12T16:45:39;84.73;;;48.70;;
69523;SDS011;56723;42.694;23.286;2023-02-12T16:50:35;61.63;;;35.77;;
69523;SDS011;56723;42.694;23.286;2023-02-12T16:56:13;73.17;;;43.63;;
69523;SDS011;56723;42.694;23.286;2023-02-12T16:58:44;87.30;;;51.13;;
69523;SDS011;56723;42.694;23.286;2023-02-12T17:01:18;83.75;;;48.05;;
69523;SDS011;56723;42.694;23.286;2023-02-12T17:03:48;80.67;;;47.70;;
69523;SDS011;56723;42.694;23.286;2023-02-12T17:06:17;79.43;;;44.30;;
